Time;durP1;ratioP1;P1;durP2;ratioP2;P2;SDS_P1;SDS_P2;PMS_P1;PMS_P2;Temp;Humidity;BMP_temperature;BMP_pressure;BME280_temperature;BME280_humidity;BME280_pressure;Samples;Min_cycle;Max_cycle;Signal;HPM_P1;HPM_P2
2021/03/14 00:02:26;;;;;;;11.45;5.22;;;;;;;2.24;89.88;100279.73;1644586;87;21264;-76
2021/03/14 00:05:33;;;;;;;13.58;5.42;;;;;;;2.21;89.96;100284.05;1644935;87;21229;-76
2021/03/14 00:08:38;;;;;;;9.10;5.03;;;;;;;2.17;89.98;100283.92;1645024;87;21257;-76
2021/03/14 00:11:43;;;;;;;14.15;6.37;;;;;;;2.14;90.12;100284.16;1644970;87;21316;-77
2021/03/14 00:14:49;;;;;;;12.55;5.15;;;;;;;2.13;90.31;100278.89;1645033;87;21373;-76
2021/03/14 00:17:55;;;;;;;14.58;6.15;;;;;;;2.14;90.44;100281.45;1660935;86;21340;-76
2021/03/14 00:21:00;;;;;;;10.93;5.37;;;;;;;2.13;90.53;100278.41;1660814;86;21365;-77
2021/03/14 00:24:06;;;;;;;11.95;5.25;;;;;;;2.15;90.66;100276.42;1660970;86;21304;-76
2021/03/14 00:27:14;;;;;;;12.68;5.47;;;;;;;2.17;90.64;100273.63;1661017;86;21755;-77
2021/03/14 00:30:21;;;;;;;7.37;4.25;;;;;;;2.16;90.61;100275.44;1660996;86;21348;-76
2021/03/14 00:33:27;;;;;;;10.28;5.55;;;;;;;2.14;90.65;100269.81;1660903;86;21350;-77
2021/03/14 00:36:33;;;;;;;13.25;5.58;;;;;;;2.11;90.67;100270.05;1660501;86;21332;-76
2021/03/14 00:39:38;;;;;;;13.58;5.47;;;;;;;2.11;90.81;100272.25;1660676;86;21313;-76
2021/03/14 00:42:44;;;;;;;8.75;4.37;;;;;;;2.13;90.85;100277.05;1632049;88;21345;-76
2021/03/14 00:45:52;;;;;;;10.15;5.10;;;;;;;2.13;90.82;100274.36;1655698;86;21304;-76
2021/03/14 00:49:01;;;;;;;16.95;4.90;;;;;;;2.16;90.85;100278.63;1655716;86;21424;-76
2021/03/14 00:52:07;;;;;;;12.85;5.90;;;;;;;2.18;90.87;100284.28;1655385;86;21336;-76
2021/03/14 00:55:14;;;;;;;10.35;5.42;;;;;;;2.19;90.89;100285.99;1655673;86;21309;-76
2021/03/14 00:58:19;;;;;;;9.80;5.47;;;;;;;2.19;90.81;100288.69;1655722;86;21230;-76
2021/03/14 01:01:24;;;;;;;12.03;6.75;;;;;;;2.20;90.79;100286.84;1655681;86;21306;-76
2021/03/14 01:04:30;;;;;;;14.93;9.18;;;;;;;2.19;90.73;100286.48;1655811;86;21361;-76
2021/03/14 01:07:36;;;;;;;18.35;8.63;;;;;;;2.20;90.72;100287.70;1655652;86;21321;-76
2021/03/14 01:10:42;;;;;;;13.68;8.20;;;;;;;2.23;90.75;100292.02;1655630;86;21704;-76
2021/03/14 01:13:49;;;;;;;13.32;8.10;;;;;;;2.22;90.62;100283.06;1653542;86;21320;-76
2021/03/14 01:16:56;;;;;;;12.93;7.20;;;;;;;2.20;90.54;100286.36;1652717;86;21262;-76
2021/03/14 01:20:01;;;;;;;10.88;5.83;;;;;;;2.19;90.45;100287.84;1648393;87;21301;-76
2021/03/14 01:23:00;;;;;;;10.63;6.60;;;;;;;2.19;90.44;100291.89;1648287;87;21811;-76
2021/03/14 01:26:07;;;;;;;11.00;6.58;;;;;;;2.17;90.47;100292.02;1648364;87;21760;-76
2021/03/14 01:29:11;;;;;;;17.20;7.03;;;;;;;2.21;90.56;100292.14;1648376;87;21370;-76
2021/03/14 01:32:16;;;;;;;15.35;6.85;;;;;;;2.18;90.49;100295.08;1648292;87;21325;-76
2021/03/14 01:35:22;;;;;;;13.80;7.25;;;;;;;2.12;90.41;100298.28;1648311;87;21346;-77
2021/03/14 01:38:27;;;;;;;14.13;6.67;;;;;;;2.07;90.51;100300.48;1648400;87;21405;-77
2021/03/14 01:41:33;;;;;;;19.98;8.68;;;;;;;2.05;90.63;100305.13;1648205;87;21191;-76
2021/03/14 01:44:41;;;;;;;18.12;8.08;;;;;;;2.06;90.76;100302.80;1648312;87;21356;-77
2021/03/14 01:47:48;;;;;;;15.38;8.05;;;;;;;2.06;90.79;100306.84;1648309;87;21337;-76
2021/03/14 01:50:53;;;;;;;15.90;8.25;;;;;;;2.03;90.74;100314.70;1648322;87;21309;-76
2021/03/14 01:53:57;;;;;;;17.40;7.40;;;;;;;1.99;90.70;100308.33;1648308;87;21807;-76
2021/03/14 01:57:03;;;;;;;18.02;7.40;;;;;;;1.93;90.75;100308.33;1648279;87;21207;-76
2021/03/14 02:00:08;;;;;;;16.17;8.60;;;;;;;1.91;90.87;100307.57;1648327;87;21823;-76
2021/03/14 02:03:13;;;;;;;15.45;9.28;;;;;;;1.87;90.96;100306.58;1648082;87;21369;-76
2021/03/14 02:06:19;;;;;;;14.45;8.90;;;;;;;1.82;91.05;100307.44;1648222;87;21314;-76
2021/03/14 02:09:25;;;;;;;15.50;9.13;;;;;;;1.82;91.20;100316.38;1648305;87;21860;-76
2021/03/14 02:12:30;;;;;;;15.70;9.20;;;;;;;1.79;91.30;100322.89;1648184;87;21227;-76
2021/03/14 02:15:36;;;;;;;20.00;10.18;;;;;;;1.77;91.37;100320.78;1648345;87;21310;-77
2021/03/14 02:18:41;;;;;;;16.80;9.75;;;;;;;1.75;91.44;100322.76;1646723;86;21331;-76
2021/03/14 02:21:47;;;;;;;15.85;9.68;;;;;;;1.74;91.54;100323.75;1648285;87;21333;-76
2021/03/14 02:24:54;;;;;;;17.45;8.55;;;;;;;1.75;91.62;100332.20;1648336;87;21314;-76
2021/03/14 02:27:59;;;;;;;17.12;8.43;;;;;;;1.74;91.64;100330.48;1648300;87;21374;-76
2021/03/14 02:31:04;;;;;;;13.45;7.33;;;;;;;1.71;91.65;100321.28;1648329;87;21195;-76
2021/03/14 02:34:15;;;;;;;16.00;9.20;;;;;;;1.73;91.75;100324.70;1648349;87;21203;-76
2021/03/14 02:37:20;;;;;;;14.83;8.03;;;;;;;1.72;91.76;100323.48;1648344;87;21970;-76
2021/03/14 02:40:27;;;;;;;12.45;7.33;;;;;;;1.70;91.73;100316.02;1648403;87;21863;-76
2021/03/14 02:43:33;;;;;;;14.80;8.00;;;;;;;1.68;91.73;100324.69;1648369;87;21357;-77
2021/03/14 02:46:37;;;;;;;17.30;9.35;;;;;;;1.69;91.80;100324.56;1648396;87;21310;-77
2021/03/14 02:49:43;;;;;;;14.68;7.92;;;;;;;1.73;91.80;100323.34;1648427;87;21831;-77
2021/03/14 02:52:50;;;;;;;18.55;9.33;;;;;;;1.74;91.70;100331.84;1647152;87;21748;-76
2021/03/14 02:55:54;;;;;;;13.28;6.92;;;;;;;1.69;91.55;100329.95;1648405;87;21318;-76
2021/03/14 02:58:59;;;;;;;12.30;7.90;;;;;;;1.66;91.51;100322.62;1648393;87;21207;-77
2021/03/14 03:02:04;;;;;;;13.40;7.35;;;;;;;1.67;91.47;100322.48;1648385;87;21337;-76
2021/03/14 03:05:14;;;;;;;17.02;7.90;;;;;;;1.65;91.38;100328.50;1648466;87;22105;-76
2021/03/14 03:08:20;;;;;;;12.25;7.50;;;;;;;1.65;91.35;100334.39;1648315;87;21337;-76
2021/03/14 03:11:25;;;;;;;14.50;6.87;;;;;;;1.66;91.38;100336.95;1648381;87;21310;-77
2021/03/14 03:14:38;;;;;;;14.07;7.05;;;;;;;1.67;91.32;100329.23;1648446;87;21916;-76
2021/03/14 03:17:44;;;;;;;15.83;8.60;;;;;;;1.63;91.15;100326.40;1648385;86;21341;-76
2021/03/14 03:20:51;;;;;;;13.62;7.80;;;;;;;1.58;91.15;100321.85;1662515;86;21343;-76
2021/03/14 03:23:58;;;;;;;15.05;8.75;;;;;;;1.54;91.28;100315.83;1637577;87;21373;-76
2021/03/14 03:27:03;;;;;;;14.25;8.60;;;;;;;1.55;91.34;100322.08;1665754;86;21372;-76
2021/03/14 03:30:11;;;;;;;16.30;6.97;;;;;;;1.56;91.45;100318.92;1637530;87;21297;-77
2021/03/14 03:33:16;;;;;;;14.43;6.22;;;;;;;1.58;91.48;100316.46;1665649;86;21339;-77
2021/03/14 03:36:21;;;;;;;16.32;6.47;;;;;;;1.59;91.48;100314.13;1637601;87;21190;-76
2021/03/14 03:39:26;;;;;;;13.58;6.00;;;;;;;1.63;91.45;100308.02;1665643;86;21206;-77
2021/03/14 03:42:34;;;;;;;13.53;6.58;;;;;;;1.62;91.32;100309.00;1637580;87;21328;-77
2021/03/14 03:45:45;;;;;;;10.50;5.72;;;;;;;1.56;91.22;100300.91;1665762;86;21850;-76
2021/03/14 03:48:58;;;;;;;12.37;6.55;;;;;;;1.51;91.24;100298.56;1637538;86;21358;-77
2021/03/14 03:52:03;;;;;;;17.87;6.87;;;;;;;1.46;91.28;100294.52;1665694;86;21341;-77
2021/03/14 03:55:08;;;;;;;12.58;7.08;;;;;;;1.37;91.41;100292.52;1637379;86;21267;-76
2021/03/14 03:58:13;;;;;;;14.75;5.85;;;;;;;1.31;91.60;100295.17;1665838;86;21862;-76
2021/03/14 04:01:20;;;;;;;10.78;5.72;;;;;;;1.28;91.81;100290.05;1637524;87;21305;-76
2021/03/14 04:04:27;;;;;;;11.63;6.08;;;;;;;1.23;91.99;100283.66;1665920;86;21324;-76
2021/03/14 04:07:32;;;;;;;9.28;5.65;;;;;;;1.19;92.12;100283.52;1637617;87;21352;-76
2021/03/14 04:10:38;;;;;;;12.53;7.75;;;;;;;1.19;92.30;100284.86;1665524;86;21329;-76
2021/03/14 04:13:43;;;;;;;13.48;6.03;;;;;;;1.20;92.47;100286.58;1637568;87;21344;-76
2021/03/14 04:16:48;;;;;;;11.08;6.10;;;;;;;1.22;92.60;100285.09;1665705;86;21233;-76
2021/03/14 04:19:54;;;;;;;13.80;5.92;;;;;;;1.24;92.64;100288.55;1635862;86;21824;-77
2021/03/14 04:23:01;;;;;;;12.30;6.10;;;;;;;1.26;92.67;100293.33;1634049;87;21701;-77
2021/03/14 04:26:06;;;;;;;15.70;6.95;;;;;;;1.26;92.65;100288.79;1648137;87;21839;-77
2021/03/14 04:29:11;;;;;;;13.22;5.92;;;;;;;1.24;92.63;100286.72;1648311;85;21199;-77
2021/03/14 04:32:17;;;;;;;9.08;5.08;;;;;;;1.25;92.69;100284.87;1648359;87;21239;-77
2021/03/14 04:35:23;;;;;;;12.78;5.42;;;;;;;1.30;92.72;100291.27;1648304;87;21321;-77
2021/03/14 04:38:30;;;;;;;17.65;6.03;;;;;;;1.36;92.72;100288.09;1648327;87;21376;-77
2021/03/14 04:41:35;;;;;;;13.88;5.97;;;;;;;1.41;92.68;100282.73;1648298;87;21329;-77
2021/03/14 04:44:40;;;;;;;10.43;5.20;;;;;;;1.49;92.64;100292.41;1648391;87;21903;-77
2021/03/14 04:47:49;;;;;;;12.35;5.30;;;;;;;1.58;92.48;100289.99;1648329;87;21414;-77
2021/03/14 04:50:58;;;;;;;12.53;5.37;;;;;;;1.63;92.26;100295.88;1648330;87;21223;-77
2021/03/14 04:54:04;;;;;;;10.45;5.58;;;;;;;1.63;92.02;100287.80;1648342;87;21227;-77
2021/03/14 04:57:09;;;;;;;12.28;5.62;;;;;;;1.65;91.90;100281.31;1648341;87;21337;-77
2021/03/14 05:00:17;;;;;;;10.60;5.15;;;;;;;1.65;91.75;100280.46;1648364;87;21864;-77
2021/03/14 05:03:26;;;;;;;14.18;6.10;;;;;;;1.64;91.70;100279.58;1648340;87;21337;-79
2021/03/14 05:06:31;;;;;;;14.30;5.40;;;;;;;1.65;91.65;100297.50;1648351;87;21319;-79
2021/03/14 05:09:38;;;;;;;12.47;5.05;;;;;;;1.64;91.56;100298.94;1648258;87;21924;-77
2021/03/14 05:12:43;;;;;;;15.35;5.95;;;;;;;1.62;91.57;100303.11;1648307;87;21360;-77
2021/03/14 05:15:49;;;;;;;14.73;4.97;;;;;;;1.65;91.57;100300.69;1646851;87;21214;-76
2021/03/14 05:18:55;;;;;;;11.48;5.08;;;;;;;1.65;91.63;100294.80;1648361;87;21314;-77
2021/03/14 05:22:00;;;;;;;13.18;4.97;;;;;;;1.68;91.68;100299.93;1655820;86;21905;-76
2021/03/14 05:25:07;;;;;;;10.58;5.00;;;;;;;1.71;91.69;100291.61;1637480;87;21327;-76
2021/03/14 05:28:12;;;;;;;9.83;4.50;;;;;;;1.76;91.70;100292.11;1665724;86;21356;-76
2021/03/14 05:31:42;;;;;;;11.60;4.92;;;;;;;1.79;91.59;100296.41;1637670;87;21294;-77
2021/03/14 05:34:46;;;;;;;;;;;;;;;1.82;91.53;100293.95;1668271;86;21305;-76
2021/03/14 05:37:51;;;;;;;14.10;5.25;;;;;;;1.85;91.44;100293.72;1666038;86;20699;-77
2021/03/14 05:40:58;;;;;;;14.55;4.92;;;;;;;1.88;91.44;100300.20;1665472;86;21926;-76
2021/03/14 05:44:02;;;;;;;11.12;4.95;;;;;;;1.92;91.48;100297.63;1665673;86;21194;-77
2021/03/14 05:47:08;;;;;;;15.32;5.22;;;;;;;1.97;91.43;100300.82;1637298;87;21919;-76
2021/03/14 05:50:16;;;;;;;11.70;5.45;;;;;;;2.07;91.32;100301.84;1665766;86;21308;-77
2021/03/14 05:53:23;;;;;;;7.90;4.62;;;;;;;2.14;91.05;100300.34;1637509;87;21341;-77
2021/03/14 05:56:28;;;;;;;10.60;5.40;;;;;;;2.23;90.93;100307.71;1665498;86;21271;-77
2021/03/14 05:59:35;;;;;;;10.58;4.58;;;;;;;2.29;90.62;100312.61;1637562;87;21294;-77
2021/03/14 06:02:40;;;;;;;8.80;5.83;;;;;;;2.30;90.19;100307.56;1665707;86;21237;-76
2021/03/14 06:05:45;;;;;;;9.98;4.53;;;;;;;2.30;89.99;100308.92;1637626;87;21302;-77
2021/03/14 06:08:51;;;;;;;15.45;5.10;;;;;;;2.30;89.81;100305.36;1630411;86;21754;-77
2021/03/14 06:11:56;;;;;;;8.85;4.65;;;;;;;2.29;89.56;100296.91;1637385;87;21214;-77
2021/03/14 06:15:03;;;;;;;12.55;4.87;;;;;;;2.27;89.41;100298.39;1665690;86;21312;-77
2021/03/14 06:18:08;;;;;;;8.15;4.05;;;;;;;2.29;89.30;100299.11;1628900;87;21242;-77
2021/03/14 06:21:35;;;;;;;9.83;4.85;;;;;;;2.29;88.97;100291.02;1647107;87;21354;-77
2021/03/14 06:24:45;;;;;;;10.28;4.97;;;;;;;2.28;88.82;100296.05;1647095;87;21335;-77
2021/03/14 06:27:54;;;;;;;11.93;5.03;;;;;;;2.26;88.63;100289.94;1636623;87;21218;-77
2021/03/14 06:31:00;;;;;;;11.48;4.70;;;;;;;2.26;88.46;100287.23;1665711;86;21296;-77
2021/03/14 06:34:06;;;;;;;8.35;4.65;;;;;;;2.26;88.31;100298.03;1637529;87;21844;-77
2021/03/14 06:37:20;;;;;;;6.62;4.53;;;;;;;2.28;88.33;100304.64;1665132;86;21333;-77
2021/03/14 06:40:26;;;;;;;11.08;4.58;;;;;;;2.33;88.41;100297.03;1637521;87;21827;-77
2021/03/14 06:43:32;;;;;;;10.63;4.62;;;;;;;2.44;88.44;100297.00;1665687;86;21262;-77
2021/03/14 06:46:38;;;;;;;12.03;4.92;;;;;;;2.56;88.27;100296.02;1615227;88;21323;-77
2021/03/14 06:49:45;;;;;;;12.18;4.87;;;;;;;2.63;87.84;100293.66;1665732;86;21321;-77
2021/03/14 06:53:12;;;;;;;9.00;5.12;;;;;;;2.67;87.44;100293.78;1665640;86;21339;-79
2021/03/14 06:56:18;;;;;;;10.50;4.95;;;;;;;2.76;87.46;100294.37;1637479;87;21320;-79
2021/03/14 06:59:27;;;;;;;13.53;5.90;;;;;;;2.85;87.42;100295.46;1665641;86;21867;-77
2021/03/14 07:02:36;;;;;;;13.38;5.70;;;;;;;2.92;87.14;100297.17;1637585;87;21340;-77
2021/03/14 07:05:42;;;;;;;11.40;5.78;;;;;;;2.97;86.71;100293.59;1665829;86;21316;-77
2021/03/14 07:08:48;;;;;;;8.63;4.80;;;;;;;3.02;86.44;100288.66;1637580;87;21191;-78
2021/03/14 07:11:53;;;;;;;8.48;4.95;;;;;;;3.06;86.09;100297.73;1665588;86;21875;-77
2021/03/14 07:14:57;;;;;;;11.53;5.33;;;;;;;3.12;85.96;100297.70;1637482;87;21195;-77
2021/03/14 07:18:04;;;;;;;9.35;4.33;;;;;;;3.21;85.61;100306.89;1665496;86;21324;-77
2021/03/14 07:21:13;;;;;;;12.45;5.42;;;;;;;3.28;85.60;100304.87;1637693;87;21235;-77
2021/03/14 07:24:21;;;;;;;10.68;5.25;;;;;;;3.38;84.99;100307.66;1647083;86;21336;-77
2021/03/14 07:27:29;;;;;;;8.43;4.62;;;;;;;3.48;84.65;100310.43;1657480;86;21862;-77
2021/03/14 07:30:36;;;;;;;7.67;4.87;;;;;;;3.55;84.33;100315.70;1657619;86;21313;-79
2021/03/14 07:33:41;;;;;;;10.10;5.15;;;;;;;3.60;84.06;100317.51;1657619;86;21376;-77
2021/03/14 07:36:46;;;;;;;13.55;5.60;;;;;;;3.69;83.86;100326.19;1657641;86;21336;-77
2021/03/14 07:39:52;;;;;;;8.83;4.85;;;;;;;3.81;83.81;100312.97;1657607;86;21198;-77
2021/03/14 07:42:57;;;;;;;13.58;6.17;;;;;;;3.93;83.24;100316.94;1657464;86;21321;-77
2021/03/14 07:46:02;;;;;;;13.28;5.42;;;;;;;3.94;82.42;100309.17;1657310;86;21910;-79
2021/03/14 07:49:08;;;;;;;18.70;6.87;;;;;;;3.98;82.30;100318.75;1657652;86;21348;-79
2021/03/14 07:52:08;;;;;;;15.88;6.75;;;;;;;4.08;81.90;100321.86;1657577;86;21380;-79
2021/03/14 07:55:07;;;;;;;8.60;5.92;;;;;;;4.28;82.40;100312.00;1657630;86;21811;-79
2021/03/14 07:58:12;;;;;;;16.93;7.15;;;;;;;4.53;82.28;100307.10;1657451;86;21788;-78
2021/03/14 08:01:40;;;;;;;13.55;7.25;;;;;;;4.76;81.67;100299.61;1657585;86;21316;-77
2021/03/14 08:04:45;;;;;;;14.83;6.33;;;;;;;4.83;80.20;100298.89;1657662;86;21837;-78
2021/03/14 08:07:51;;;;;;;15.35;6.95;;;;;;;4.87;79.71;100290.84;1657586;86;21344;-78
2021/03/14 08:10:57;;;;;;;14.78;7.03;;;;;;;4.96;79.78;100289.15;1657659;86;21812;-78
2021/03/14 08:14:03;;;;;;;11.68;7.28;;;;;;;5.05;79.26;100288.31;1657441;86;21968;-77
2021/03/14 08:17:25;;;;;;;13.35;6.55;;;;;;;5.17;79.21;100286.30;1657601;86;21264;-78
2021/03/14 08:20:52;;;;;;;12.78;6.83;;;;;;;5.30;77.88;100292.30;1657732;86;21198;-77
2021/03/14 08:24:03;;;;;;;12.98;7.10;;;;;;;5.30;77.88;100292.30;1655439;86;21325;-77
2021/03/14 08:27:16;;;;;;;16.70;8.00;;;;;;;5.26;77.54;100294.94;1623935;88;21343;-77
2021/03/14 08:30:44;;;;;;;14.30;7.42;;;;;;;5.26;77.81;100290.88;1623980;88;21308;-77
2021/03/14 08:33:52;;;;;;;13.78;7.47;;;;;;;5.37;78.59;100292.10;1623995;88;21344;-77
2021/03/14 08:36:59;;;;;;;14.40;7.65;;;;;;;5.52;77.77;100286.23;1624032;88;21360;-77
2021/03/14 08:40:11;;;;;;;18.23;7.85;;;;;;;5.54;76.42;100288.30;1623934;88;21350;-77
2021/03/14 08:43:18;;;;;;;13.75;8.68;;;;;;;5.54;77.28;100286.43;1623765;88;21359;-77
2021/03/14 08:46:24;;;;;;;13.88;8.18;;;;;;;5.63;77.23;100283.35;1623706;88;21376;-78
2021/03/14 08:49:31;;;;;;;13.83;7.85;;;;;;;5.75;77.37;100285.42;1623949;88;21190;-78
2021/03/14 08:52:36;;;;;;;14.47;9.10;;;;;;;5.83;77.40;100270.13;1623938;88;21874;-78
2021/03/14 08:55:46;;;;;;;14.40;8.58;;;;;;;5.87;76.52;100274.23;1623581;88;21193;-78
2021/03/14 08:58:53;;;;;;;18.70;9.28;;;;;;;5.88;76.36;100275.08;1623848;88;21217;-78
2021/03/14 09:02:10;;;;;;;16.95;9.05;;;;;;;5.90;76.62;100279.38;1623933;88;21862;-78
2021/03/14 09:05:24;;;;;;;19.67;9.40;;;;;;;6.02;77.22;100274.67;1623902;88;21304;-78
2021/03/14 09:08:29;;;;;;;15.65;8.93;;;;;;;6.14;76.81;100269.39;1623897;88;21335;-78
2021/03/14 09:11:48;;;;;;;15.90;8.35;;;;;;;6.29;76.30;100276.55;1623924;88;21201;-78
2021/03/14 09:14:58;;;;;;;12.73;8.38;;;;;;;6.39;75.44;100273.78;1622100;88;21181;-78
2021/03/14 09:18:11;;;;;;;18.42;8.70;;;;;;;6.42;74.95;100274.00;1621813;88;21348;-78
2021/03/14 09:21:17;;;;;;;12.68;8.90;;;;;;;6.49;74.94;100275.09;1623990;88;21921;-77
2021/03/14 09:24:39;;;;;;;19.95;9.20;;;;;;;6.53;74.84;100283.30;1623968;88;21763;-78
2021/03/14 09:27:45;;;;;;;16.52;9.10;;;;;;;6.51;74.08;100279.38;1623894;88;21229;-78
2021/03/14 09:30:59;;;;;;;19.50;9.18;;;;;;;6.45;73.53;100268.27;1623898;88;21787;-78
2021/03/14 09:34:05;;;;;;;12.98;8.10;;;;;;;6.46;74.06;100268.63;1623969;88;21298;-78
2021/03/14 09:37:10;;;;;;;21.95;9.70;;;;;;;6.49;73.92;100265.58;1623900;88;21356;-78
2021/03/14 09:40:31;;;;;;;15.50;8.00;;;;;;;6.46;73.80;100268.63;1623973;88;21877;-78
2021/03/14 09:43:36;;;;;;;12.68;8.60;;;;;;;6.40;73.84;100273.66;1623868;88;21328;-78
2021/03/14 09:47:05;;;;;;;15.15;8.88;;;;;;;6.42;73.81;100259.91;1623803;88;21335;-78
2021/03/14 09:50:16;;;;;;;20.92;9.70;;;;;;;6.47;74.40;100261.67;1623952;88;21878;-78
2021/03/14 09:53:24;;;;;;;12.95;7.67;;;;;;;6.49;73.97;100256.92;1623777;88;21284;-78
2021/03/14 09:56:31;;;;;;;15.85;8.30;;;;;;;6.50;74.02;100260.52;1624057;88;21853;-78
2021/03/14 09:59:38;;;;;;;19.85;8.75;;;;;;;6.55;73.83;100263.13;1623417;88;21315;-78
2021/03/14 10:02:45;;;;;;;15.50;8.10;;;;;;;6.58;73.91;100251.94;1623681;88;21311;-78
2021/03/14 10:05:56;;;;;;;12.15;7.85;;;;;;;6.62;73.89;100242.48;1623525;88;21348;-78
2021/03/14 10:09:03;;;;;;;16.85;8.15;;;;;;;6.69;73.32;100244.61;1624007;88;21872;-78
2021/03/14 10:12:12;;;;;;;14.20;7.22;;;;;;;6.76;73.56;100242.46;1623906;88;21770;-78
2021/03/14 10:15:23;;;;;;;15.40;8.18;;;;;;;6.84;73.32;100233.04;1623880;88;21319;-78
2021/03/14 10:18:32;;;;;;;15.18;7.90;;;;;;;6.90;73.23;100226.98;1623957;88;21366;-78
2021/03/14 10:21:36;;;;;;;17.85;6.75;;;;;;;7.00;73.35;100220.61;1623900;88;21720;-78
2021/03/14 10:24:54;;;;;;;13.48;6.20;;;;;;;7.12;73.06;100227.53;1623827;88;21307;-78
2021/03/14 10:28:19;;;;;;;19.92;7.62;;;;;;;7.20;72.91;100230.34;1645086;86;21199;-78
2021/03/14 10:31:28;;;;;;;12.55;6.58;;;;;;;7.29;72.17;100218.52;1648264;87;21781;-78
2021/03/14 10:34:35;;;;;;;11.30;6.97;;;;;;;7.35;72.08;100214.30;1648327;87;21313;-78
2021/03/14 10:37:42;;;;;;;12.25;6.05;;;;;;;7.47;71.88;100217.61;1648127;87;21809;-78
2021/03/14 10:40:49;;;;;;;15.78;6.60;;;;;;;7.55;71.08;100206.79;1648322;87;21364;-78
2021/03/14 10:44:04;;;;;;;13.00;6.28;;;;;;;7.61;70.56;100212.95;1648299;87;21365;-79
2021/03/14 10:47:18;;;;;;;13.72;6.65;;;;;;;7.63;70.54;100205.50;1648191;87;21234;-78
2021/03/14 10:50:28;;;;;;;12.85;6.87;;;;;;;7.59;69.69;100195.42;1648266;87;21268;-78
2021/03/14 10:53:35;;;;;;;15.10;6.40;;;;;;;7.52;69.39;100188.05;1648298;87;21337;-77
2021/03/14 10:56:45;;;;;;;9.68;6.28;;;;;;;7.43;69.55;100185.77;1648362;87;21880;-79
2021/03/14 10:59:52;;;;;;;13.03;6.03;;;;;;;7.37;70.00;100177.73;1648331;87;21313;-79
2021/03/14 11:03:00;;;;;;;13.62;6.05;;;;;;;7.36;70.21;100181.99;1648379;87;21342;-79
2021/03/14 11:06:28;;;;;;;9.30;5.30;;;;;;;7.32;69.56;100185.53;1648463;87;21851;-79
2021/03/14 11:09:33;;;;;;;10.78;5.75;;;;;;;7.30;69.89;100179.91;1648337;87;21325;-78
2021/03/14 11:12:39;;;;;;;11.95;4.92;;;;;;;7.30;70.24;100173.96;1648331;87;21369;-79
2021/03/14 11:15:47;;;;;;;8.85;4.65;;;;;;;7.24;69.31;100158.25;1648420;87;21214;-78
2021/03/14 11:19:06;;;;;;;11.08;5.92;;;;;;;7.15;69.03;100166.88;1648420;87;21302;-79
2021/03/14 11:22:14;;;;;;;10.95;5.47;;;;;;;7.12;69.41;100161.75;1648021;87;21325;-78
2021/03/14 11:25:19;;;;;;;10.08;5.20;;;;;;;7.12;69.79;100160.89;1648471;87;21320;-79
2021/03/14 11:28:26;;;;;;;9.08;4.70;;;;;;;7.12;69.64;100156.81;1656305;86;21200;-78
2021/03/14 11:31:34;;;;;;;11.83;5.30;;;;;;;7.14;69.48;100147.47;1636854;87;21206;-78
2021/03/14 11:34:41;;;;;;;12.45;5.47;;;;;;;7.19;70.26;100146.99;1665785;86;21308;-78
2021/03/14 11:38:03;;;;;;;8.90;4.97;;;;;;;7.30;70.33;100144.55;1637571;87;21337;-79
2021/03/14 11:41:11;;;;;;;9.88;5.30;;;;;;;7.46;70.32;100143.79;1665689;86;21325;-78
2021/03/14 11:44:18;;;;;;;9.45;4.55;;;;;;;7.52;69.93;100140.41;1637627;87;21293;-78
2021/03/14 11:47:24;;;;;;;11.93;4.83;;;;;;;7.53;69.18;100127.14;1665561;86;21863;-78
2021/03/14 11:50:43;;;;;;;9.70;4.92;;;;;;;7.52;68.59;100121.36;1620240;86;21193;-78
2021/03/14 11:53:48;;;;;;;9.35;4.30;;;;;;;7.48;68.97;100117.25;1665828;86;21304;-79
2021/03/14 11:56:57;;;;;;;9.13;4.60;;;;;;;7.51;69.08;100115.07;1614741;87;21890;-78
2021/03/14 12:00:04;;;;;;;10.98;4.58;;;;;;;7.57;68.25;100117.65;1665751;85;21411;-79
2021/03/14 12:03:11;;;;;;;9.93;5.45;;;;;;;7.63;68.14;100115.66;1637564;86;21340;-78
2021/03/14 12:06:21;;;;;;;11.22;5.03;;;;;;;7.72;68.06;100110.61;1665777;86;21233;-78
2021/03/14 12:09:29;;;;;;;8.43;4.58;;;;;;;7.80;68.05;100109.26;1637615;87;21298;-78
2021/03/14 12:12:34;;;;;;;12.28;4.83;;;;;;;7.89;67.13;100109.64;1665193;86;21345;-78
2021/03/14 12:15:41;;;;;;;10.13;5.55;;;;;;;7.98;66.86;100105.59;1633470;86;21330;-79
2021/03/14 12:18:47;;;;;;;8.75;4.70;;;;;;;8.11;66.96;100101.91;1665262;86;21325;-79
2021/03/14 12:21:54;;;;;;;8.65;5.37;;;;;;;8.20;66.76;100101.76;1664075;86;21895;-78
2021/03/14 12:25:00;;;;;;;13.80;5.10;;;;;;;8.23;65.51;100104.64;1664008;86;21326;-78
2021/03/14 12:28:06;;;;;;;10.82;5.12;;;;;;;8.23;64.70;100091.02;1663626;84;21341;-80
2021/03/14 12:31:14;;;;;;;10.80;5.50;;;;;;;8.17;63.38;100090.33;1656698;86;21394;-80
2021/03/14 12:34:20;;;;;;;9.73;5.00;;;;;;;8.15;64.38;100087.78;1626698;88;21332;-79
2021/03/14 12:37:28;;;;;;;9.05;4.53;;;;;;;8.19;63.36;100092.40;1626066;88;21926;-80
2021/03/14 12:40:35;;;;;;;8.78;4.80;;;;;;;8.19;61.71;100099.21;1626238;88;21360;-80
2021/03/14 12:43:41;;;;;;;7.67;4.78;;;;;;;8.19;60.97;100100.57;1624990;88;21375;-79
2021/03/14 12:46:47;;;;;;;8.23;4.90;;;;;;;8.16;58.39;100088.13;1626027;88;21869;-80
2021/03/14 12:49:56;;;;;;;10.90;5.70;;;;;;;8.13;57.55;100101.21;1625688;88;21685;-79
2021/03/14 12:53:02;;;;;;;11.12;5.20;;;;;;;8.13;58.95;100103.94;1625106;88;21898;-79
2021/03/14 12:56:09;;;;;;;10.72;5.20;;;;;;;8.15;58.06;100107.37;1626829;88;21187;-80
2021/03/14 12:59:16;;;;;;;7.62;4.25;;;;;;;8.16;58.13;100104.98;1626771;88;21290;-80
2021/03/14 13:02:22;;;;;;;8.83;4.40;;;;;;;8.14;55.73;100101.58;1625947;88;21780;-79
2021/03/14 13:05:28;;;;;;;8.78;4.97;;;;;;;8.05;55.11;100084.87;1626591;88;21341;-79
2021/03/14 13:08:35;;;;;;;7.83;4.47;;;;;;;7.98;55.45;100081.08;1625687;88;21270;-79
2021/03/14 13:11:41;;;;;;;9.88;4.83;;;;;;;7.92;54.56;100075.80;1626756;88;21427;-80
2021/03/14 13:14:47;;;;;;;5.20;3.90;;;;;;;7.91;55.83;100065.92;1626755;88;21843;-79
2021/03/14 13:17:53;;;;;;;8.90;4.28;;;;;;;7.91;54.50;100064.05;1626354;88;21328;-80
2021/03/14 13:20:59;;;;;;;7.12;3.67;;;;;;;7.92;54.39;100058.94;1626750;88;21318;-79
2021/03/14 13:24:05;;;;;;;5.60;4.20;;;;;;;7.91;51.91;100060.48;1625574;87;21261;-80
2021/03/14 13:27:13;;;;;;;8.08;5.15;;;;;;;7.88;51.62;100059.44;1626505;88;21360;-80
2021/03/14 13:30:20;;;;;;;8.25;4.92;;;;;;;7.86;51.95;100061.48;1626469;87;21350;-80
2021/03/14 13:33:25;;;;;;;6.92;4.12;;;;;;;7.84;50.66;100058.91;1627794;88;21358;-79
2021/03/14 13:36:31;;;;;;;9.88;4.60;;;;;;;7.78;50.82;100059.58;1628874;88;21383;-80
2021/03/14 13:39:37;;;;;;;5.95;3.95;;;;;;;7.75;50.74;100063.13;1628905;88;21836;-80
2021/03/14 13:42:43;;;;;;;11.53;4.83;;;;;;;7.74;51.20;100060.06;1628335;88;21334;-79
2021/03/14 13:45:50;;;;;;;7.55;4.37;;;;;;;7.76;51.92;100055.30;1628896;88;21839;-79
2021/03/14 13:48:56;;;;;;;11.93;6.85;;;;;;;7.77;49.72;100057.87;1628236;88;21402;-79
2021/03/14 13:52:03;;;;;;;17.65;10.23;;;;;;;7.76;50.31;100049.34;1627648;88;21291;-80
2021/03/14 13:55:10;;;;;;;27.62;14.13;;;;;;;7.74;50.22;100051.90;1629082;88;21169;-79
2021/03/14 13:58:32;;;;;;;16.65;9.43;;;;;;;7.73;50.28;100052.41;1628941;88;21895;-79
2021/03/14 14:01:55;;;;;;;35.65;18.95;;;;;;;7.67;50.55;100042.19;1628965;88;21864;-79
2021/03/14 14:05:01;;;;;;;11.93;5.90;;;;;;;7.58;49.18;100030.92;1628788;88;21326;-79
2021/03/14 14:08:07;;;;;;;24.18;12.63;;;;;;;7.52;49.00;100020.66;1628977;88;21354;-79
2021/03/14 14:11:15;;;;;;;14.30;8.70;;;;;;;7.43;48.66;100024.73;1627659;87;21200;-79
2021/03/14 14:14:21;;;;;;;8.38;5.53;;;;;;;7.36;49.79;100026.89;1629002;88;21347;-79
2021/03/14 14:17:27;;;;;;;10.93;6.95;;;;;;;7.30;50.22;100018.88;1628976;88;21370;-79
2021/03/14 14:20:32;;;;;;;11.25;7.05;;;;;;;7.26;50.62;100009.33;1629001;88;21200;-79
2021/03/14 14:23:37;;;;;;;8.70;6.00;;;;;;;7.21;49.82;100007.61;1628922;88;21338;-79
2021/03/14 14:26:43;;;;;;;16.25;10.28;;;;;;;7.16;49.84;99998.57;1628925;88;21798;-79
2021/03/14 14:29:48;;;;;;;15.38;10.15;;;;;;;7.10;49.64;100004.64;1629034;88;22274;-79
2021/03/14 14:32:53;;;;;;;10.55;5.45;;;;;;;7.04;49.41;100009.87;1628589;87;21746;-79
2021/03/14 14:35:59;;;;;;;6.28;4.40;;;;;;;6.97;49.91;100000.67;1628953;88;21303;-79